Time;durP1;ratioP1;P1;durP2;ratioP2;P2;SDS_P1;SDS_P2;PMS_P1;PMS_P2;Temp;Humidity;BMP_temperature;BMP_pressure;BME280_temperature;BME280_humidity;BME280_pressure;Samples;Min_cycle;Max_cycle;Signal;HPM_P1;HPM_P2
2022/03/07 00:02:12;;;;;;;3.95;3.58;;;1.50;99.90;;;;;;4977215;28;20432;-95
2022/03/07 00:04:38;;;;;;;5.63;3.72;;;1.40;99.90;;;;;;4949321;28;20045;-94
2022/03/07 00:07:04;;;;;;;22.58;12.55;;;1.00;99.90;;;;;;4977913;28;20050;-96
2022/03/07 00:09:30;;;;;;;15.73;8.48;;;1.50;99.90;;;;;;4974550;28;20404;-95
2022/03/07 00:11:55;;;;;;;11.60;7.68;;;1.70;99.90;;;;;;4953653;28;20038;-96
2022/03/07 00:14:21;;;;;;;16.77;8.35;;;0.50;99.90;;;;;;4967873;28;20130;-95
2022/03/07 00:16:50;;;;;;;12.57;6.95;;;0.50;99.90;;;;;;4977650;28;20043;-86
2022/03/07 00:19:16;;;;;;;8.52;5.85;;;0.50;99.90;;;;;;4961468;28;20104;-96
2022/03/07 00:21:42;;;;;;;10.83;6.20;;;0.50;99.90;;;;;;4979550;28;20039;-95
2022/03/07 00:24:08;;;;;;;13.20;5.30;;;0.50;99.90;;;;;;4979669;28;20304;-94
2022/03/07 00:26:35;;;;;;;7.85;4.75;;;0.40;99.90;;;;;;4952870;28;20049;-94
2022/03/07 00:29:01;;;;;;;8.45;4.25;;;0.30;99.90;;;;;;4949744;28;20049;-95
2022/03/07 00:31:27;;;;;;;5.82;4.38;;;0.30;99.90;;;;;;4985751;28;20039;-95
2022/03/07 00:33:53;;;;;;;8.02;4.88;;;1.40;99.90;;;;;;4952270;28;20069;-95
2022/03/07 00:36:19;;;;;;;6.55;4.95;;;1.60;99.90;;;;;;4963496;28;20050;-93
2022/03/07 00:38:49;;;;;;;6.38;4.60;;;0.30;99.90;;;;;;4967470;28;20038;-94
2022/03/07 00:41:15;;;;;;;4.20;3.75;;;1.60;99.90;;;;;;4986332;28;20050;-95
2022/03/07 00:43:41;;;;;;;7.38;5.10;;;0.30;99.90;;;;;;4962086;28;20048;-94
2022/03/07 00:46:07;;;;;;;5.85;4.38;;;0.80;99.90;;;;;;4979984;28;20035;-95
2022/03/07 00:48:32;;;;;;;7.53;4.75;;;0.20;99.90;;;;;;4979260;28;20039;-95
2022/03/07 00:50:59;;;;;;;7.88;3.58;;;0.20;99.90;;;;;;4976043;28;20137;-94
2022/03/07 00:53:25;;;;;;;4.90;4.50;;;0.70;99.90;;;;;;4987007;28;20037;-95
2022/03/07 00:55:53;;;;;;;4.68;4.25;;;0.10;99.90;;;;;;4984758;28;20061;-86
2022/03/07 00:58:21;;;;;;;5.35;4.45;;;0.10;99.90;;;;;;4992170;28;20416;-93
2022/03/07 01:00:47;;;;;;;6.45;4.68;;;0.00;99.90;;;;;;4964868;28;20049;-94
2022/03/07 01:03:14;;;;;;;6.60;3.85;;;0.00;99.90;;;;;;4973065;28;20045;-93
2022/03/07 01:05:41;;;;;;;5.43;4.90;;;1.20;99.90;;;;;;4988956;28;20042;-95
2022/03/07 01:08:07;;;;;;;;;;;0.70;99.90;;;;;;4966935;28;20110;-95
2022/03/07 01:10:34;;;;;;;13.98;4.57;;;0.10;99.90;;;;;;4987537;28;20391;-94
2022/03/07 01:13:00;;;;;;;7.00;4.88;;;0.00;99.90;;;;;;4982007;28;20042;-94
2022/03/07 01:15:26;;;;;;;7.97;4.55;;;-0.10;99.90;;;;;;4974519;28;20113;-94
2022/03/07 01:17:54;;;;;;;4.37;3.93;;;-0.10;99.90;;;;;;4978468;28;20042;-93
2022/03/07 01:20:21;;;;;;;6.65;3.97;;;-0.10;99.90;;;;;;4965686;28;20293;-93
2022/03/07 01:22:49;;;;;;;7.25;4.60;;;-0.20;99.90;;;;;;4956101;28;21835;-93
2022/03/07 01:25:15;;;;;;;11.23;5.50;;;0.20;99.90;;;;;;4966988;28;20089;-90
2022/03/07 01:27:41;;;;;;;10.70;5.32;;;0.70;99.90;;;;;;4948330;28;20046;-93
2022/03/07 01:30:07;;;;;;;10.10;3.85;;;1.10;99.90;;;;;;4964817;28;20085;-94
2022/03/07 01:32:33;;;;;;;6.88;4.32;;;-0.30;99.90;;;;;;4970900;28;20046;-95
2022/03/07 01:35:00;;;;;;;6.50;5.03;;;-0.40;99.90;;;;;;4958876;28;20050;-93
2022/03/07 01:37:25;;;;;;;5.63;3.17;;;-0.30;99.90;;;;;;4990699;28;20096;-94
2022/03/07 01:39:51;;;;;;;13.10;6.32;;;0.90;99.90;;;;;;4977564;28;20396;-92
2022/03/07 01:42:17;;;;;;;11.35;4.47;;;0.90;99.90;;;;;;4943155;28;20559;-93
2022/03/07 01:44:42;;;;;;;6.10;4.35;;;-0.30;99.90;;;;;;4970919;28;20061;-91
2022/03/07 01:47:08;;;;;;;7.15;4.03;;;-0.40;99.90;;;;;;4972194;28;20050;-93
2022/03/07 01:49:34;;;;;;;6.88;5.05;;;-0.40;99.90;;;;;;4970166;28;20119;-93
2022/03/07 01:52:00;;;;;;;7.47;4.70;;;0.30;99.90;;;;;;4972584;28;20048;-89
2022/03/07 01:54:26;;;;;;;7.47;5.97;;;-0.20;99.90;;;;;;4964823;28;20061;-92
2022/03/07 01:56:53;;;;;;;11.05;4.43;;;-0.50;99.90;;;;;;4945197;28;20504;-93
2022/03/07 01:59:21;;;;;;;5.10;3.65;;;0.40;99.90;;;;;;4956782;28;20645;-92
2022/03/07 02:01:48;;;;;;;5.85;3.90;;;0.90;99.90;;;;;;4955353;28;20046;-92
2022/03/07 02:04:13;;;;;;;6.40;3.95;;;-0.60;99.90;;;;;;4982633;28;20105;-91
2022/03/07 02:06:40;;;;;;;4.60;3.63;;;-0.60;99.90;;;;;;4961943;28;20050;-93
2022/03/07 02:09:08;;;;;;;6.25;3.90;;;-0.60;99.90;;;;;;4961899;28;20093;-91
2022/03/07 02:11:34;;;;;;;5.80;4.05;;;-0.70;99.90;;;;;;4950358;28;20074;-92
2022/03/07 02:14:14;;;;;;;8.30;4.72;;;0.40;99.90;;;;;;4974197;28;20515;-87
2022/03/07 02:16:40;;;;;;;4.18;3.63;;;-0.70;99.90;;;;;;4992614;28;20042;-91
2022/03/07 02:19:06;;;;;;;7.20;3.50;;;-0.70;99.90;;;;;;4970491;28;20121;-91
2022/03/07 02:21:36;;;;;;;4.00;3.25;;;-0.80;99.90;;;;;;4954443;28;20125;-92
2022/03/07 02:24:02;;;;;;;7.05;3.70;;;0.20;99.90;;;;;;4966643;28;20074;-86
2022/03/07 02:26:29;;;;;;;5.68;4.57;;;-0.80;99.90;;;;;;4984717;28;20141;-89
2022/03/07 02:28:54;;;;;;;18.57;5.37;;;0.40;99.90;;;;;;4993772;28;20042;-91
2022/03/07 02:31:21;;;;;;;8.95;3.95;;;-0.80;99.90;;;;;;4962701;28;20368;-91
2022/03/07 02:33:49;;;;;;;10.50;2.92;;;-0.90;99.90;;;;;;4978352;28;20477;-92
2022/03/07 02:36:15;;;;;;;4.05;2.63;;;-0.90;99.90;;;;;;4970192;28;20051;-91
2022/03/07 02:38:41;;;;;;;6.53;2.92;;;-1.00;99.90;;;;;;4967047;28;20046;-91
2022/03/07 02:41:06;;;;;;;6.03;3.22;;;-0.90;99.90;;;;;;4978260;28;20478;-90
2022/03/07 02:43:32;;;;;;;6.68;2.90;;;-0.60;99.90;;;;;;4980175;28;20509;-92
2022/03/07 02:45:58;;;;;;;7.13;3.38;;;-1.00;99.90;;;;;;4967177;28;20045;-87
2022/03/07 02:48:27;;;;;;;5.03;3.72;;;-0.10;99.90;;;;;;4988720;28;20133;-92
2022/03/07 02:50:53;;;;;;;5.68;3.15;;;-1.10;99.90;;;;;;4971344;28;20042;-91
2022/03/07 02:53:19;;;;;;;3.40;2.33;;;0.20;99.90;;;;;;4968350;28;20097;-92
2022/03/07 02:55:45;;;;;;;7.90;5.75;;;-1.10;99.90;;;;;;4973409;28;20066;-91
2022/03/07 02:58:10;;;;;;;5.28;3.15;;;-0.90;99.90;;;;;;4990478;28;20051;-89
2022/03/07 03:00:37;;;;;;;5.45;3.78;;;-1.20;99.90;;;;;;4987860;28;20042;-91
2022/03/07 03:03:02;;;;;;;4.00;3.60;;;-0.90;99.90;;;;;;4983633;28;20071;-92
2022/03/07 03:05:28;;;;;;;9.48;3.38;;;-0.40;99.90;;;;;;4967683;28;20043;-92
2022/03/07 03:07:54;;;;;;;4.05;2.22;;;-0.70;99.90;;;;;;4985727;28;20053;-91
2022/03/07 03:10:20;;;;;;;4.80;2.88;;;-0.40;99.90;;;;;;4987155;28;20069;-92
2022/03/07 03:12:49;;;;;;;4.82;4.00;;;-1.20;99.90;;;;;;4967066;28;20050;-92
2022/03/07 03:15:15;;;;;;;5.50;3.63;;;-1.20;99.90;;;;;;4973180;28;20133;-92
2022/03/07 03:17:42;;;;;;;4.68;3.42;;;-0.70;99.90;;;;;;4951804;28;20548;-91
2022/03/07 03:20:11;;;;;;;3.70;2.42;;;-1.20;99.90;;;;;;4966959;28;20559;-87
2022/03/07 03:22:37;;;;;;;4.40;3.47;;;-1.30;99.90;;;;;;4965715;28;20060;-92
2022/03/07 03:25:04;;;;;;;4.47;2.85;;;0.10;99.90;;;;;;4987368;28;20070;-91
2022/03/07 03:27:30;;;;;;;;;;;-1.40;99.90;;;;;;4965030;28;20037;-91
2022/03/07 03:29:56;;;;;;;2.13;1.92;;;-1.20;99.90;;;;;;4985462;28;19921;-91
2022/03/07 03:32:21;;;;;;;4.70;2.90;;;-1.30;99.90;;;;;;4958909;28;20042;-89
2022/03/07 03:34:47;;;;;;;5.88;3.60;;;-1.20;99.90;;;;;;4978370;28;20046;-91
2022/03/07 03:37:13;;;;;;;6.72;4.15;;;-1.50;99.90;;;;;;4962384;28;20042;-86
2022/03/07 03:39:39;;;;;;;3.92;3.63;;;-1.30;99.90;;;;;;4966647;28;20048;-90
2022/03/07 03:42:05;;;;;;;5.38;3.50;;;-1.40;99.90;;;;;;4955502;28;20120;-91
2022/03/07 03:44:31;;;;;;;3.75;2.50;;;-1.40;99.90;;;;;;4970215;28;20042;-91
2022/03/07 03:46:56;;;;;;;5.13;3.03;;;-1.50;99.90;;;;;;4966902;28;20050;-91
2022/03/07 03:49:22;;;;;;;7.97;2.83;;;-1.50;99.90;;;;;;4947614;28;20050;-91
2022/03/07 03:51:48;;;;;;;3.70;2.80;;;-1.50;99.90;;;;;;4951376;28;20054;-90
2022/03/07 03:54:13;;;;;;;3.60;2.75;;;-1.60;99.90;;;;;;4964469;28;20491;-85
2022/03/07 03:56:40;;;;;;;3.03;2.80;;;-1.50;99.90;;;;;;4981069;28;20058;-91
2022/03/07 03:59:06;;;;;;;;;;;-0.30;99.90;;;;;;4972736;28;20060;-90
2022/03/07 04:01:32;;;;;;;2.10;1.45;;;-1.60;99.90;;;;;;5025068;28;20356;-90
2022/03/07 04:03:58;;;;;;;1.77;1.60;;;-0.90;99.90;;;;;;4990317;28;20046;-91
2022/03/07 04:06:23;;;;;;;2.05;1.95;;;-0.60;99.90;;;;;;5009330;28;20126;-91
2022/03/07 04:08:58;;;;;;;4.70;2.80;;;-1.60;99.90;;;;;;4988592;28;20049;-89
2022/03/07 04:11:24;;;;;;;5.25;2.80;;;-1.60;99.90;;;;;;4984066;28;20078;-91
2022/03/07 04:13:50;;;;;;;6.68;2.92;;;-1.60;99.90;;;;;;4998759;28;20563;-89
2022/03/07 04:16:16;;;;;;;3.60;1.85;;;-1.60;99.90;;;;;;4987608;28;20065;-86
2022/03/07 04:18:42;;;;;;;3.53;3.17;;;-1.50;99.90;;;;;;4971147;28;20045;-91
2022/03/07 04:21:07;;;;;;;2.22;1.98;;;-1.60;99.90;;;;;;4982670;28;20100;-91
2022/03/07 04:23:33;;;;;;;3.88;2.45;;;-1.60;99.90;;;;;;4970869;28;20057;-91
2022/03/07 04:25:59;;;;;;;3.35;2.38;;;-1.70;99.90;;;;;;4984717;28;20064;-89
2022/03/07 04:28:25;;;;;;;2.38;1.85;;;-1.60;99.90;;;;;;4971501;28;20045;-91
2022/03/07 04:30:50;;;;;;;7.97;3.05;;;-1.60;99.90;;;;;;4990666;28;20047;-91
2022/03/07 04:33:16;;;;;;;3.80;2.10;;;-1.60;99.90;;;;;;5003771;28;20042;-90
2022/03/07 04:35:42;;;;;;;4.95;2.45;;;-0.60;99.90;;;;;;5002529;28;20489;-90
2022/03/07 04:38:07;;;;;;;2.70;2.10;;;-1.60;99.90;;;;;;4976360;28;20066;-90
2022/03/07 04:40:33;;;;;;;1.67;1.52;;;-1.60;99.90;;;;;;4963023;28;20547;-90
2022/03/07 04:43:01;;;;;;;3.87;3.40;;;-1.50;99.90;;;;;;4982824;28;20053;-91
2022/03/07 04:45:27;;;;;;;5.68;2.40;;;-1.50;99.90;;;;;;4974775;28;20128;-90
2022/03/07 04:47:52;;;;;;;5.70;4.35;;;-1.50;99.90;;;;;;4994757;28;20132;-90
2022/03/07 04:50:18;;;;;;;4.25;2.45;;;-1.10;99.90;;;;;;4983207;28;20057;-91
2022/03/07 04:52:44;;;;;;;3.47;2.58;;;-1.30;99.90;;;;;;5008544;28;20038;-91
2022/03/07 04:55:12;;;;;;;3.10;2.80;;;-0.20;99.90;;;;;;4967272;28;20057;-91
2022/03/07 04:57:38;;;;;;;4.57;4.18;;;-1.00;99.90;;;;;;4990202;28;20057;-88
2022/03/07 05:00:10;;;;;;;6.10;3.22;;;-0.50;99.90;;;;;;4998513;28;20042;-91
2022/03/07 05:02:35;;;;;;;6.28;3.20;;;-1.50;99.90;;;;;;4991546;28;20049;-91
2022/03/07 05:05:01;;;;;;;5.43;2.75;;;-1.50;99.90;;;;;;4958922;28;20297;-91
2022/03/07 05:07:27;;;;;;;6.78;3.35;;;-0.10;99.90;;;;;;4989503;28;20245;-92
2022/03/07 05:09:53;;;;;;;6.05;3.90;;;-0.80;99.90;;;;;;4994131;28;20350;-90
2022/03/07 05:12:19;;;;;;;3.78;2.72;;;-0.30;99.90;;;;;;4991621;28;20045;-91
2022/03/07 05:14:44;;;;;;;2.95;2.45;;;-1.40;99.90;;;;;;4974688;28;20042;-92
2022/03/07 05:17:10;;;;;;;4.38;2.30;;;-1.40;99.90;;;;;;4993362;28;20172;-89
2022/03/07 05:19:36;;;;;;;6.07;5.03;;;-1.40;99.90;;;;;;4975116;28;20041;-90
2022/03/07 05:22:02;;;;;;;6.97;2.60;;;-1.40;99.90;;;;;;4962756;28;20050;-92
2022/03/07 05:24:28;;;;;;;3.03;2.35;;;-1.50;99.90;;;;;;4963893;28;20057;-90
2022/03/07 05:26:54;;;;;;;2.65;2.45;;;-1.50;99.90;;;;;;4976540;28;20057;-91
2022/03/07 05:29:20;;;;;;;4.20;2.88;;;-1.10;99.90;;;;;;4987423;28;20041;-89
2022/03/07 05:31:45;;;;;;;5.53;3.83;;;-0.40;99.90;;;;;;4991807;28;20048;-91
2022/03/07 05:34:11;;;;;;;2.72;2.38;;;-1.10;99.90;;;;;;4992039;28;20047;-91
2022/03/07 05:36:37;;;;;;;4.45;3.08;;;-1.50;99.90;;;;;;4961329;28;20033;-90
2022/03/07 05:39:04;;;;;;;3.13;2.88;;;-1.50;99.90;;;;;;4959771;28;20052;-90
2022/03/07 05:41:30;;;;;;;2.75;2.45;;;-0.90;99.90;;;;;;4972749;28;20042;-92
2022/03/07 05:43:55;;;;;;;11.90;2.47;;;-1.50;99.90;;;;;;4993846;28;20175;-91
2022/03/07 05:46:21;;;;;;;3.67;2.22;;;-1.10;99.90;;;;;;4958792;28;20046;-92
2022/03/07 05:48:53;;;;;;;5.22;3.22;;;-1.60;99.90;;;;;;4976969;28;20289;-89
2022/03/07 05:51:23;;;;;;;3.42;2.55;;;-0.60;99.90;;;;;;4951977;28;20501;-91
2022/03/07 05:53:50;;;;;;;3.55;2.60;;;-1.60;99.90;;;;;;4977202;28;20042;-90
2022/03/07 05:56:15;;;;;;;3.22;2.47;;;-1.60;99.90;;;;;;4971241;28;20053;-90
2022/03/07 05:58:41;;;;;;;3.45;2.63;;;-0.80;99.90;;;;;;4984347;28;20105;-91
2022/03/07 06:01:07;;;;;;;4.10;2.42;;;-1.60;99.90;;;;;;4961919;28;20057;-90
2022/03/07 06:03:32;;;;;;;3.78;3.05;;;-0.60;99.90;;;;;;4979021;28;20046;-90
2022/03/07 06:05:58;;;;;;;4.50;2.40;;;-1.60;99.90;;;;;;4946309;28;20038;-88
2022/03/07 06:08:24;;;;;;;2.22;2.10;;;-1.40;99.90;;;;;;4969236;28;20549;-91
2022/03/07 06:10:49;;;;;;;3.90;2.83;;;-1.50;99.90;;;;;;4964465;28;20046;-90
2022/03/07 06:13:15;;;;;;;3.78;2.88;;;-1.50;99.90;;;;;;4958498;28;20153;-91
2022/03/07 06:15:43;;;;;;;6.38;2.20;;;-1.40;99.90;;;;;;4968434;28;20319;-91
2022/03/07 06:18:10;;;;;;;4.45;2.78;;;-0.60;99.90;;;;;;4960435;28;20552;-90
2022/03/07 06:20:36;;;;;;;4.70;2.97;;;-1.30;99.90;;;;;;4987668;28;20045;-91
2022/03/07 06:23:01;;;;;;;3.75;3.35;;;-0.90;99.90;;;;;;4970410;28;20045;-92
2022/03/07 06:25:30;;;;;;;7.32;3.97;;;-1.10;99.90;;;;;;4967218;28;20049;-90
2022/03/07 06:27:56;;;;;;;5.18;3.20;;;-1.20;99.90;;;;;;4952929;28;20046;-90
2022/03/07 06:30:21;;;;;;;4.00;3.45;;;-1.10;99.90;;;;;;4978951;28;20068;-90
2022/03/07 06:32:47;;;;;;;4.38;3.97;;;-0.80;99.90;;;;;;4962804;28;20062;-90
2022/03/07 06:35:13;;;;;;;3.75;2.60;;;-0.70;99.90;;;;;;4977040;28;20054;-93
2022/03/07 06:37:48;;;;;;;3.25;2.90;;;-0.80;99.90;;;;;;4991179;28;20440;-85
2022/03/07 06:40:15;;;;;;;4.03;2.47;;;-1.10;99.90;;;;;;4973108;28;20481;-87
2022/03/07 06:42:41;;;;;;;5.65;2.97;;;-1.20;99.90;;;;;;4968162;28;20077;-92
2022/03/07 06:45:07;;;;;;;5.07;3.10;;;-1.20;99.90;;;;;;4972781;28;20115;-92
2022/03/07 06:47:33;;;;;;;4.13;2.97;;;-1.20;99.90;;;;;;4952591;28;20504;-92
2022/03/07 06:49:59;;;;;;;5.20;2.95;;;-1.10;99.90;;;;;;4948630;28;20042;-93
2022/03/07 06:52:25;;;;;;;6.45;3.72;;;-0.70;99.90;;;;;;4959845;28;20105;-93
2022/03/07 06:54:51;;;;;;;4.53;2.57;;;-1.10;99.90;;;;;;4968313;28;20054;-91
2022/03/07 06:57:19;;;;;;;4.13;3.20;;;-1.20;99.90;;;;;;5017344;28;20550;-90
2022/03/07 06:59:45;;;;;;;5.80;3.33;;;-1.20;99.90;;;;;;4984011;28;20121;-91
2022/03/07 07:02:10;;;;;;;9.32;3.80;;;-1.10;99.90;;;;;;4970294;28;20133;-93
2022/03/07 07:04:39;;;;;;;5.95;3.60;;;-1.10;99.90;;;;;;5023576;28;20064;-93
2022/03/07 07:07:04;;;;;;;4.57;3.08;;;0.20;99.90;;;;;;5020578;28;20041;-95
2022/03/07 07:09:32;;;;;;;6.00;3.55;;;-1.10;99.90;;;;;;4998994;28;20056;-96
2022/03/07 07:11:58;;;;;;;3.53;3.25;;;-0.90;99.90;;;;;;5006364;28;20037;-93
2022/03/07 07:14:24;;;;;;;6.70;4.82;;;0.70;99.90;;;;;;5009531;28;20064;-94
2022/03/07 07:16:49;;;;;;;13.68;5.10;;;0.20;99.90;;;;;;4979802;28;20060;-92
2022/03/07 07:19:15;;;;;;;9.65;6.07;;;0.70;99.90;;;;;;4974026;28;20045;-92
2022/03/07 07:21:41;;;;;;;9.27;4.75;;;1.20;99.90;;;;;;4966398;28;20100;-86
2022/03/07 07:24:08;;;;;;;10.43;5.03;;;2.10;99.90;;;;;;4986990;28;20046;-90
2022/03/07 07:26:33;;;;;;;;;;;1.70;99.90;;;;;;5014121;28;20046;-90
2022/03/07 07:28:59;;;;;;;7.07;4.97;;;2.10;99.90;;;;;;5013689;28;20521;-86
2022/03/07 07:31:25;;;;;;;7.37;4.73;;;2.40;99.90;;;;;;4987359;28;20502;-87
2022/03/07 07:33:50;;;;;;;9.20;5.13;;;4.00;99.90;;;;;;4967543;28;20045;-95
2022/03/07 07:36:16;;;;;;;8.80;5.67;;;3.80;99.90;;;;;;5004280;28;20504;-93
2022/03/07 07:38:42;;;;;;;10.63;6.23;;;3.30;99.90;;;;;;5002836;28;20046;-86
2022/03/07 07:41:08;;;;;;;8.63;5.30;;;3.60;99.90;;;;;;5012375;28;20100;-93
2022/03/07 07:43:34;;;;;;;6.23;4.80;;;3.70;99.90;;;;;;4984030;28;20078;-88
2022/03/07 07:46:00;;;;;;;6.30;4.83;;;3.90;99.90;;;;;;4968016;28;20038;-95
2022/03/07 07:48:25;;;;;;;6.67;5.03;;;5.00;99.90;;;;;;4973790;28;20042;-88
2022/03/07 07:50:51;;;;;;;7.80;4.60;;;4.40;99.90;;;;;;4986546;28;20046;-88
2022/03/07 07:53:17;;;;;;;8.27;4.83;;;4.50;99.90;;;;;;5007780;28;20638;-93
2022/03/07 07:55:43;;;;;;;9.40;4.23;;;4.90;99.90;;;;;;4987012;28;20403;-90
2022/03/07 07:58:08;;;;;;;8.90;5.23;;;5.00;99.90;;;;;;5000613;28;20062;-95
2022/03/07 08:00:34;;;;;;;7.70;4.80;;;5.30;99.90;;;;;;4965661;28;20493;-90
2022/03/07 08:03:00;;;;;;;5.93;4.23;;;5.50;99.90;;;;;;4974678;28;20050;-92
2022/03/07 08:05:26;;;;;;;8.17;5.27;;;5.60;99.90;;;;;;4976618;28;20057;-93
2022/03/07 08:07:52;;;;;;;6.43;4.72;;;6.10;99.90;;;;;;4978531;28;20042;-91
2022/03/07 08:10:18;;;;;;;6.03;4.47;;;6.60;99.90;;;;;;4986059;28;20033;-92
2022/03/07 08:12:44;;;;;;;7.15;4.25;;;6.80;99.90;;;;;;4959969;28;20077;-93
2022/03/07 08:15:14;;;;;;;5.10;4.10;;;7.40;99.90;;;;;;4991931;28;20049;-93
2022/03/07 08:17:46;;;;;;;5.55;4.20;;;7.90;99.90;;;;;;5000581;28;20520;-91
2022/03/07 08:20:12;;;;;;;5.47;3.55;;;8.40;99.90;;;;;;5005383;28;20128;-91
2022/03/07 08:22:38;;;;;;;7.72;4.05;;;8.70;99.90;;;;;;5003863;28;20080;-93
2022/03/07 08:25:04;;;;;;;8.63;3.47;;;8.90;99.90;;;;;;4999563;28;20045;-93
2022/03/07 08:27:31;;;;;;;5.10;3.40;;;9.40;99.90;;;;;;4983700;28;20477;-93
2022/03/07 08:29:57;;;;;;;;;;;9.60;99.90;;;;;;4982594;28;20078;-94
2022/03/07 08:32:22;;;;;;;4.75;3.13;;;9.80;99.90;;;;;;4994416;28;20355;-93
2022/03/07 08:34:48;;;;;;;5.20;3.00;;;10.10;99.90;;;;;;4988352;28;20053;-88
2022/03/07 08:37:14;;;;;;;4.43;2.83;;;10.30;99.90;;;;;;4964194;28;20510;-93
2022/03/07 08:39:39;;;;;;;3.60;3.03;;;10.60;99.90;;;;;;4986065;28;20053;-94
2022/03/07 08:42:05;;;;;;;4.50;2.73;;;10.40;99.90;;;;;;4981837;28;20588;-93
2022/03/07 08:44:33;;;;;;;4.80;3.08;;;10.90;99.90;;;;;;4981761;28;20050;-91
2022/03/07 08:46:59;;;;;;;3.65;2.53;;;11.00;99.90;;;;;;5023983;28;20042;-93
2022/03/07 08:49:25;;;;;;;3.28;2.70;;;11.10;99.90;;;;;;4975544;28;20045;-93
2022/03/07 08:51:51;;;;;;;3.33;2.33;;;11.20;99.90;;;;;;4964433;28;20129;-89
2022/03/07 08:54:17;;;;;;;3.60;2.97;;;11.30;99.90;;;;;;4985723;28;20127;-91
2022/03/07 08:56:44;;;;;;;2.75;2.35;;;11.50;99.90;;;;;;4970048;28;20293;-96
2022/03/07 08:59:10;;;;;;;2.92;2.58;;;11.50;99.90;;;;;;4981612;28;20042;-92
2022/03/07 09:01:36;;;;;;;2.50;2.08;;;11.60;99.90;;;;;;4983370;28;20074;-93
2022/03/07 09:04:02;;;;;;;5.53;2.83;;;11.70;99.90;;;;;;4999271;28;20141;-93
2022/03/07 09:06:28;;;;;;;2.90;2.20;;;11.70;99.90;;;;;;4966686;28;20049;-92
2022/03/07 09:08:54;;;;;;;4.57;2.28;;;11.30;99.90;;;;;;4987327;28;20037;-88
2022/03/07 09:11:20;;;;;;;3.85;2.92;;;11.10;99.90;;;;;;4981861;28;20049;-87
2022/03/07 09:13:46;;;;;;;4.80;2.47;;;10.90;99.90;;;;;;4975555;28;20054;-88
2022/03/07 09:16:14;;;;;;;3.30;2.15;;;10.70;99.90;;;;;;4984752;28;20290;-94
2022/03/07 09:18:41;;;;;;;4.82;2.38;;;10.80;99.90;;;;;;4979515;28;20115;-90
2022/03/07 09:21:07;;;;;;;1.63;1.50;;;11.00;99.90;;;;;;4981841;28;20473;-89
2022/03/07 09:23:37;;;;;;;3.15;2.35;;;10.90;98.40;;;;;;5019936;28;20037;-87
2022/03/07 09:26:09;;;;;;;3.97;1.75;;;10.50;97.40;;;;;;4988212;28;20038;-92
2022/03/07 09:28:35;;;;;;;2.30;1.17;;;10.50;96.90;;;;;;4979575;28;20045;-90
2022/03/07 09:31:01;;;;;;;0.90;0.90;;;10.60;97.10;;;;;;4999113;28;20045;-93
2022/03/07 09:33:30;;;;;;;2.38;1.73;;;10.60;96.60;;;;;;4982230;28;20044;-94
2022/03/07 09:35:56;;;;;;;4.78;1.90;;;10.60;96.90;;;;;;4971086;28;20048;-89
2022/03/07 09:38:22;;;;;;;5.03;2.53;;;10.70;97.30;;;;;;5008537;28;20045;-92
2022/03/07 09:40:48;;;;;;;3.55;1.73;;;10.70;98.00;;;;;;4990797;28;20046;-92
2022/03/07 09:43:14;;;;;;;7.03;2.10;;;10.40;99.10;;;;;;5008318;28;20073;-93
2022/03/07 09:45:43;;;;;;;2.53;1.75;;;10.30;99.90;;;;;;4979804;28;20125;-93
2022/03/07 09:48:11;;;;;;;6.03;2.53;;;10.40;99.90;;;;;;4981093;28;21507;-88
2022/03/07 09:50:37;;;;;;;4.93;2.72;;;10.60;99.90;;;;;;4995063;28;20049;-89
2022/03/07 09:53:02;;;;;;;1.97;1.70;;;10.80;99.90;;;;;;5008540;28;20129;-90
2022/03/07 09:55:49;;;;;;;7.70;2.70;;;10.60;99.90;;;;;;4994195;28;20208;-90
2022/03/07 09:58:21;;;;;;;2.40;1.70;;;10.60;99.90;;;;;;4963058;28;20392;-92
2022/03/07 10:01:03;;;;;;;2.83;2.33;;;10.40;99.90;;;;;;4978841;28;20046;-92
2022/03/07 10:04:00;;;;;;;;;;;;;;;;;;;;;
2022/03/07 10:06:29;;;;;;;2.88;1.83;;;10.20;99.90;;;;;;4992041;28;20485;-93
2022/03/07 10:08:59;;;;;;;2.95;1.38;;;10.10;99.90;;;;;;4992346;28;20457;-93
2022/03/07 10:11:28;;;;;;;3.25;1.23;;;10.30;99.90;;;;;;4994478;28;20045;-93
2022/03/07 10:13:57;;;;;;;2.70;1.48;;;10.30;99.90;;;;;;4987692;28;20166;-93
2022/03/07 10:16:23;;;;;;;2.90;1.55;;;10.50;99.90;;;;;;4977647;28;20045;-93
2022/03/07 10:18:54;;;;;;;5.97;1.58;;;10.80;99.90;;;;;;4974316;28;20053;-93
2022/03/07 10:21:27;;;;;;;2.38;1.10;;;10.90;99.90;;;;;;5008730;28;20046;-92
2022/03/07 10:23:57;;;;;;;1.50;1.20;;;10.10;99.90;;;;;;5005230;28;20049;-92
2022/03/07 10:26:34;;;;;;;1.55;1.45;;;10.60;99.30;;;;;;4988504;28;20038;-95
2022/03/07 10:29:00;;;;;;;;;;;10.30;99.90;;;;;;4978639;28;20120;-92
2022/03/07 10:31:28;;;;;;;1.65;1.55;;;10.00;96.30;;;;;;4959417;28;20411;-93
2022/03/07 10:34:04;;;;;;;7.60;1.50;;;9.80;99.90;;;;;;4976838;28;20057;-96
2022/03/07 10:36:45;;;;;;;2.08;1.55;;;9.20;99.40;;;;;;4988753;28;20045;-95
2022/03/07 10:39:13;;;;;;;2.58;1.60;;;9.50;99.90;;;;;;4994120;28;20050;-94
2022/03/07 10:41:44;;;;;;;1.52;1.42;;;9.40;99.90;;;;;;4979847;28;20057;-92
2022/03/07 10:44:24;;;;;;;2.50;1.67;;;9.30;99.90;;;;;;4999591;28;20042;-96
2022/03/07 10:46:50;;;;;;;1.88;1.25;;;9.20;99.90;;;;;;4991794;28;20045;-96
2022/03/07 10:49:22;;;;;;;2.87;1.50;;;9.10;99.90;;;;;;4981453;28;20037;-96
2022/03/07 10:51:53;;;;;;;2.33;1.50;;;9.20;99.90;;;;;;4982770;28;20137;-96
2022/03/07 10:54:20;;;;;;;1.52;1.17;;;9.10;99.90;;;;;;4977371;28;20050;-96
2022/03/07 10:56:54;;;;;;;1.25;1.15;;;9.00;99.90;;;;;;4945266;28;20058;-96
2022/03/07 10:59:32;;;;;;;1.15;0.93;;;8.90;99.90;;;;;;4956848;28;20050;-95
2022/03/07 11:02:05;;;;;;;1.83;1.20;;;8.80;99.90;;;;;;4980789;28;20078;-95
2022/03/07 11:04:31;;;;;;;1.33;1.13;;;8.80;99.90;;;;;;4987756;28;20559;-93
2022/03/07 11:06:57;;;;;;;1.17;1.00;;;9.00;99.90;;;;;;4991535;28;20051;-92
2022/03/07 11:09:22;;;;;;;1.43;1.33;;;9.50;99.90;;;;;;4991949;28;20092;-96
2022/03/07 11:11:50;;;;;;;2.93;1.10;;;10.10;99.90;;;;;;4996015;28;20077;-93
2022/03/07 11:14:16;;;;;;;1.88;1.60;;;10.20;99.90;;;;;;4991695;28;20046;-95
2022/03/07 11:16:45;;;;;;;2.53;1.27;;;10.20;97.90;;;;;;4985496;28;20089;-95
2022/03/07 11:19:12;;;;;;;0.98;0.80;;;10.40;96.60;;;;;;4979086;28;20049;-90
2022/03/07 11:21:44;;;;;;;2.30;1.55;;;10.50;95.40;;;;;;4954847;28;20047;-93
2022/03/07 11:24:10;;;;;;;1.30;1.20;;;10.90;95.10;;;;;;4981870;28;20108;-88
2022/03/07 11:26:41;;;;;;;3.83;1.65;;;11.10;95.50;;;;;;4992735;28;20108;-96
2022/03/07 11:29:08;;;;;;;1.27;0.95;;;11.10;94.30;;;;;;4992954;28;20123;-96
2022/03/07 11:31:34;;;;;;;1.25;1.08;;;11.20;93.80;;;;;;4971098;28;20097;-96
2022/03/07 11:34:07;;;;;;;1.85;1.10;;;11.20;91.10;;;;;;4994267;28;20046;-94
2022/03/07 11:36:41;;;;;;;1.13;0.93;;;11.40;84.90;;;;;;4992696;28;20326;-93
2022/03/07 11:39:08;;;;;;;2.90;0.90;;;11.50;84.90;;;;;;4977356;28;20091;-93
2022/03/07 11:41:37;;;;;;;2.95;0.95;;;11.80;84.00;;;;;;4988100;28;20046;-95
2022/03/07 11:44:26;;;;;;;0.80;0.80;;;12.00;79.70;;;;;;4992579;28;20104;-95
2022/03/07 11:46:52;;;;;;;1.58;1.02;;;12.10;76.40;;;;;;4980894;28;20512;-86
2022/03/07 11:49:27;;;;;;;1.13;0.80;;;12.40;77.60;;;;;;4955652;28;20104;-92
2022/03/07 11:51:58;;;;;;;2.50;1.00;;;12.50;74.10;;;;;;4973309;28;20556;-94
2022/03/07 11:54:26;;;;;;;0.95;0.90;;;12.60;73.40;;;;;;4985636;28;20064;-90
2022/03/07 11:57:04;;;;;;;2.03;0.90;;;13.20;72.80;;;;;;4995216;28;20056;-93
2022/03/07 11:59:33;;;;;;;2.10;0.88;;;13.20;69.00;;;;;;5009786;28;20133;-92
2022/03/07 12:01:59;;;;;;;1.95;0.70;;;13.50;69.70;;;;;;4980684;28;20052;-92
2022/03/07 12:04:25;;;;;;;0.80;0.60;;;13.40;69.60;;;;;;4991332;28;20050;-93
2022/03/07 12:06:52;;;;;;;0.50;0.50;;;13.30;69.20;;;;;;4990107;28;20492;-90
2022/03/07 12:09:32;;;;;;;0.73;0.73;;;13.10;67.10;;;;;;4985383;28;20295;-94
2022/03/07 12:12:20;;;;;;;0.88;0.80;;;12.90;65.00;;;;;;4994756;28;20476;-95
2022/03/07 12:14:47;;;;;;;1.35;1.13;;;13.00;62.00;;;;;;5014415;28;20042;-94
2022/03/07 12:17:31;;;;;;;;;;;13.00;65.80;;;;;;5000687;28;20081;-95
2022/03/07 12:19:58;;;;;;;0.77;0.77;;;12.90;63.70;;;;;;4994321;28;20438;-91
2022/03/07 12:22:26;;;;;;;1.45;0.80;;;12.90;67.30;;;;;;4992391;28;20038;-93
2022/03/07 12:24:54;;;;;;;0.80;0.80;;;12.90;67.70;;;;;;5012165;28;20065;-94
2022/03/07 12:27:22;;;;;;;1.25;1.13;;;12.90;68.30;;;;;;4986173;28;20041;-93
2022/03/07 12:29:51;;;;;;;0.95;0.90;;;12.90;66.70;;;;;;4996564;28;20041;-93
2022/03/07 12:32:18;;;;;;;2.28;1.05;;;13.10;65.80;;;;;;4969942;28;20067;-92
2022/03/07 12:34:45;;;;;;;1.00;0.85;;;13.40;65.70;;;;;;4968158;28;20049;-94
2022/03/07 12:37:17;;;;;;;;;;;13.60;65.40;;;;;;5005547;28;20053;-94
2022/03/07 12:39:50;;;;;;;3.70;0.90;;;13.70;58.10;;;;;;4996685;28;19922;-93
2022/03/07 12:42:19;;;;;;;2.70;1.23;;;13.90;62.00;;;;;;5012050;28;20377;-94
2022/03/07 12:44:46;;;;;;;1.45;0.82;;;14.10;62.40;;;;;;5012399;28;20049;-94
2022/03/07 12:47:12;;;;;;;0.80;0.80;;;14.00;62.50;;;;;;4984917;28;20049;-92
2022/03/07 12:49:38;;;;;;;1.08;0.98;;;14.10;63.50;;;;;;5005164;28;20401;-92
2022/03/07 12:52:08;;;;;;;1.00;0.90;;;14.30;62.30;;;;;;5028572;28;20034;-93
2022/03/07 12:54:38;;;;;;;0.80;0.80;;;14.70;61.60;;;;;;5012438;28;20042;-93